Time;durP1;ratioP1;P1;durP2;ratioP2;P2;SDS_P1;SDS_P2;PMS_P1;PMS_P2;Temp;Humidity;BMP_temperature;BMP_pressure;BME280_temperature;BME280_humidity;BME280_pressure;Samples;Min_cycle;Max_cycle;Signal;HPM_P1;HPM_P2
2022/04/10 00:00:58;;;;;;;;;9.25;9.25;;;;;9.42;48.60;101290.69;5095752;27;45593;-62
2022/04/10 00:03:24;;;;;;;;;14.00;14.00;;;;;9.41;48.47;101293.34;5095716;27;45370;-65
2022/04/10 00:05:51;;;;;;;;;17.50;15.75;;;;;9.41;48.70;101296.84;5095633;27;45423;-65
2022/04/10 00:08:16;;;;;;;;;19.75;16.00;;;;;9.39;48.24;101293.38;5095881;27;45471;-62
2022/04/10 00:10:42;;;;;;;;;21.75;19.50;;;;;9.38;48.17;101294.28;5095532;27;45514;-64
2022/04/10 00:13:08;;;;;;;;;19.00;18.50;;;;;9.36;48.93;101285.56;5095532;27;45899;-64
2022/04/10 00:15:33;;;;;;;;;14.25;14.25;;;;;9.34;48.65;101283.84;5095696;27;45439;-66
2022/04/10 00:17:59;;;;;;;;;17.75;15.75;;;;;9.34;48.52;101278.59;5094388;27;45402;-62
2022/04/10 00:20:24;;;;;;;;;18.25;16.00;;;;;9.29;48.75;101276.06;5091529;27;45392;-63
2022/04/10 00:22:49;;;;;;;;;19.50;16.75;;;;;9.31;48.85;101276.91;5074596;27;45433;-65
2022/04/10 00:25:17;;;;;;;;;22.75;19.75;;;;;9.23;49.02;101265.69;5074891;27;45391;-66
2022/04/10 00:27:43;;;;;;;;;17.50;16.25;;;;;9.26;49.12;101268.25;5074949;27;45504;-64
2022/04/10 00:30:10;;;;;;;;;21.50;20.50;;;;;9.24;49.38;101270.03;5074821;27;45374;-62
2022/04/10 00:32:36;;;;;;;;;24.50;20.75;;;;;9.19;49.08;101264.91;5074776;27;45519;-65
2022/04/10 00:35:05;;;;;;;;;17.25;15.75;;;;;9.16;49.63;101262.34;5074640;28;45425;-62
2022/04/10 00:37:31;;;;;;;;;16.50;16.25;;;;;9.17;49.75;101277.16;5075023;27;45414;-63
2022/04/10 00:39:56;;;;;;;;;19.25;18.50;;;;;9.18;49.52;101272.78;5074861;27;45315;-66
2022/04/10 00:42:22;;;;;;;;;16.75;16.00;;;;;9.18;49.48;101272.78;5074839;27;45825;-64
2022/04/10 00:44:47;;;;;;;;;19.00;15.75;;;;;9.18;49.98;101270.16;5074917;27;45505;-63
2022/04/10 00:47:13;;;;;;;;;17.75;17.75;;;;;9.15;49.58;101273.69;5075210;27;45989;-64
2022/04/10 00:49:39;;;;;;;;;22.50;17.50;;;;;9.03;49.21;101251.19;5074847;27;45656;-64
2022/04/10 00:52:09;;;;;;;;;20.00;17.50;;;;;9.03;49.66;101256.44;5073555;28;45480;-65
2022/04/10 00:54:35;;;;;;;;;18.50;18.00;;;;;9.12;49.58;101273.75;5074590;27;45362;-65
2022/04/10 00:57:02;;;;;;;;;19.00;19.00;;;;;9.10;49.45;101269.44;5074666;27;45469;-64
2022/04/10 00:59:28;;;;;;;;;17.50;17.50;;;;;9.03;49.54;101266.06;5073237;28;45643;-64
2022/04/10 01:01:54;;;;;;;;;16.75;16.00;;;;;9.05;49.70;101267.78;5074342;27;46008;-64
2022/04/10 01:04:19;;;;;;;;;19.00;15.00;;;;;9.09;49.47;101278.22;5073248;28;45487;-65
2022/04/10 01:06:48;;;;;;;;;18.25;16.25;;;;;9.04;49.83;101275.66;5075705;27;45477;-65
2022/04/10 01:09:14;;;;;;;;;13.75;13.25;;;;;9.04;49.62;101271.28;5078119;27;45504;-66
2022/04/10 01:11:41;;;;;;;;;18.50;15.50;;;;;9.01;49.34;101263.47;5077847;27;46352;-62
2022/04/10 01:14:08;;;;;;;;;15.75;15.75;;;;;8.98;49.63;101262.66;5077859;28;45491;-64
2022/04/10 01:16:34;;;;;;;;;19.00;17.75;;;;;9.01;49.41;101270.47;5078158;27;45386;-63
2022/04/10 01:19:04;;;;;;;;;18.00;18.00;;;;;9.01;49.75;101270.47;5077910;27;45344;-62
2022/04/10 01:21:32;;;;;;;;;12.75;12.75;;;;;8.96;49.75;101262.69;5077752;27;46838;-64
2022/04/10 01:24:00;;;;;;;;;14.25;14.00;;;;;8.98;49.54;101276.66;5077743;27;45461;-64
2022/04/10 01:26:27;;;;;;;;;15.25;15.25;;;;;9.01;49.13;101278.34;5078036;27;45484;-62
2022/04/10 01:29:11;;;;;;;;;19.00;16.75;;;;;8.99;49.17;101269.63;5077632;27;45522;-62
2022/04/10 01:31:38;;;;;;;;;14.50;14.50;;;;;8.90;49.61;101264.56;5077548;27;45494;-66
2022/04/10 01:34:10;;;;;;;;;18.50;17.25;;;;;8.90;49.80;101268.03;5077502;27;45476;-65
2022/04/10 01:36:36;;;;;;;;;17.75;17.75;;;;;8.89;50.02;101273.31;5076414;28;45481;-65
2022/04/10 01:39:05;;;;;;;;;12.75;12.75;;;;;8.88;50.06;101277.69;5077545;27;45512;-64
2022/04/10 01:41:31;;;;;;;;;18.50;18.50;;;;;8.79;50.18;101267.38;5077399;27;45378;-64
2022/04/10 01:43:58;;;;;;;;;18.25;17.00;;;;;8.79;49.76;101276.09;5077575;27;45367;-63
2022/04/10 01:46:27;;;;;;;;;19.25;17.75;;;;;8.80;49.68;101269.09;5075980;28;45449;-63
2022/04/10 01:48:53;;;;;;;;;18.25;17.00;;;;;8.78;50.06;101260.38;5077579;27;45354;-65
2022/04/10 01:51:23;;;;;;;;;18.25;14.75;;;;;8.83;49.84;101264.66;5076070;28;47397;-65
2022/04/10 01:53:49;;;;;;;;;15.25;15.25;;;;;8.84;49.92;101265.53;5092864;27;45821;-65
2022/04/10 01:56:14;;;;;;;;;17.00;14.00;;;;;8.81;50.01;101257.69;5077117;28;45454;-63
2022/04/10 01:58:41;;;;;;;;;14.00;13.00;;;;;8.75;49.85;101250.81;5075995;28;45470;-65
2022/04/10 02:01:09;;;;;;;;;17.75;16.25;;;;;8.73;49.91;101242.13;5077287;27;46987;-61
2022/04/10 02:03:35;;;;;;;;;18.50;16.50;;;;;8.79;49.23;101249.00;5075620;28;46011;-63
2022/04/10 02:06:05;;;;;;;;;17.25;16.50;;;;;8.79;49.88;101256.88;5077295;28;45449;-65
2022/04/10 02:08:31;;;;;;;;;17.00;15.00;;;;;8.76;50.07;101252.56;5077108;27;45511;-66
2022/04/10 02:10:57;;;;;;;;;17.00;15.00;;;;;8.76;49.77;101246.44;5076775;27;46783;-64
2022/04/10 02:13:24;;;;;;;;;17.00;13.25;;;;;8.73;49.89;101251.72;5077154;28;45386;-63
2022/04/10 02:15:50;;;;;;;;;18.00;15.50;;;;;8.73;49.32;101246.47;5077054;28;45553;-65
2022/04/10 02:18:16;;;;;;;;;13.25;13.25;;;;;8.73;50.07;101252.63;5077192;27;45430;-65
2022/04/10 02:20:42;;;;;;;;;15.75;13.75;;;;;8.69;49.68;101244.81;5076866;27;46310;-64
2022/04/10 02:23:08;;;;;;;;;16.50;13.75;;;;;8.70;49.60;101251.78;5076959;27;45929;-65
2022/04/10 02:25:34;;;;;;;;;16.50;14.50;;;;;8.69;49.15;101253.53;5075658;28;45410;-63
2022/04/10 02:28:00;;;;;;;;;13.00;13.00;;;;;8.61;49.40;101247.56;5076768;27;45488;-60
2022/04/10 02:30:26;;;;;;;;;15.25;14.00;;;;;8.65;49.22;101251.88;5076757;27;45433;-63
2022/04/10 02:32:51;;;;;;;;;16.50;13.75;;;;;8.67;49.26;101251.84;5076637;27;46018;-63
2022/04/10 02:35:17;;;;;;;;;13.75;13.75;;;;;8.60;49.76;101249.31;5077053;28;45436;-63
2022/04/10 02:37:45;;;;;;;;;14.00;14.00;;;;;8.68;48.86;101258.78;5076808;27;45528;-66
2022/04/10 02:40:14;;;;;;;;;12.25;12.25;;;;;8.67;48.89;101257.94;5076396;27;45387;-64
2022/04/10 02:42:40;;;;;;;;;8.00;8.00;;;;;8.52;49.57;101243.34;5076671;27;45635;-65
2022/04/10 02:45:07;;;;;;;;;13.50;13.00;;;;;8.51;49.33;101257.31;5076763;27;45477;-64
2022/04/10 02:47:32;;;;;;;;;14.00;14.00;;;;;8.53;49.96;101262.56;5076504;27;45650;-63
2022/04/10 02:49:58;;;;;;;;;12.75;12.75;;;;;8.53;49.66;101260.78;5076385;27;45432;-63
2022/04/10 02:52:23;;;;;;;;;15.00;13.50;;;;;8.53;49.20;101250.31;5076413;27;45422;-62
2022/04/10 02:54:49;;;;;;;;;14.00;14.00;;;;;8.61;49.72;101256.28;5076654;27;45946;-63
2022/04/10 02:57:15;;;;;;;;;17.00;16.00;;;;;8.60;49.43;101257.19;5076656;27;45497;-63
2022/04/10 02:59:43;;;;;;;;;14.25;14.25;;;;;8.57;49.13;101252.00;5075387;27;46611;-62
2022/04/10 03:02:08;;;;;;;;;15.25;13.50;;;;;8.66;48.87;101265.84;5076324;27;45442;-64
2022/04/10 03:04:33;;;;;;;;;14.25;13.25;;;;;8.62;49.07;101258.03;5076482;27;45459;-63
2022/04/10 03:06:59;;;;;;;;;15.25;15.25;;;;;8.62;49.85;101267.63;5076405;27;45547;-62
2022/04/10 03:09:24;;;;;;;;;15.50;13.75;;;;;8.58;50.18;101265.97;5076301;27;45864;-63
2022/04/10 03:11:50;;;;;;;;;17.75;16.25;;;;;8.59;50.28;101259.81;5076068;27;45443;-64
2022/04/10 03:14:15;;;;;;;;;14.25;14.25;;;;;8.62;49.47;101268.53;5076306;27;45413;-64
2022/04/10 03:16:42;;;;;;;;;17.00;13.25;;;;;8.57;49.62;101269.47;5075199;27;45501;-63
2022/04/10 03:19:07;;;;;;;;;12.00;12.00;;;;;8.52;49.64;101259.06;5075872;27;45475;-63
2022/04/10 03:21:34;;;;;;;;;17.75;14.25;;;;;8.51;50.08;101261.72;5076036;28;45323;-66
2022/04/10 03:24:03;;;;;;;;;15.75;14.50;;;;;8.57;49.62;101266.84;5075042;28;45367;-63
2022/04/10 03:26:29;;;;;;;;;16.50;13.25;;;;;8.57;50.21;101270.34;5076276;27;45453;-67
2022/04/10 03:28:54;;;;;;;;;17.75;17.75;;;;;8.57;50.30;101275.59;5075679;27;46042;-65
2022/04/10 03:31:20;;;;;;;;;14.75;14.25;;;;;8.60;50.55;101283.41;5075542;27;45455;-66
2022/04/10 03:33:46;;;;;;;;;17.25;16.50;;;;;8.55;50.13;101276.50;5075950;27;45444;-65
2022/04/10 03:36:12;;;;;;;;;16.50;16.50;;;;;8.55;50.42;101277.38;5075578;27;45627;-65
2022/04/10 03:38:38;;;;;;;;;16.50;16.00;;;;;8.56;50.69;101281.72;5075620;27;46218;-64
2022/04/10 03:41:03;;;;;;;;;19.75;18.50;;;;;8.51;50.94;101273.06;5075365;27;45533;-64
2022/04/10 03:43:29;;;;;;;;;22.25;19.50;;;;;8.45;51.29;101267.91;5075742;27;45886;-66
2022/04/10 03:45:54;;;;;;;;;19.50;18.00;;;;;8.48;51.42;101272.25;5075981;27;45584;-62
2022/04/10 03:48:19;;;;;;;;;1.00;1.00;;;;;8.48;51.81;101286.22;5075655;27;46281;-66
2022/04/10 03:50:45;;;;;;;;;22.25;22.25;;;;;8.48;51.39;101286.22;5075681;27;45389;-64
2022/04/10 03:53:10;;;;;;;;;22.75;21.25;;;;;8.43;52.07;101280.16;5075635;28;45446;-65
2022/04/10 03:55:35;;;;;;;;;22.50;22.00;;;;;8.43;51.85;101271.44;5075643;27;45377;-65
2022/04/10 03:58:01;;;;;;;;;20.50;19.00;;;;;8.42;51.91;101275.84;5075481;27;45990;-65
2022/04/10 04:00:27;;;;;;;;;20.00;20.00;;;;;8.39;52.35;101276.75;5073957;28;45382;-62
2022/04/10 04:02:52;;;;;;;;;19.25;18.25;;;;;8.39;51.72;101279.38;5075585;28;45433;-63
2022/04/10 04:05:17;;;;;;;;;19.00;19.00;;;;;8.38;52.43;101280.22;5074226;28;45319;-63
2022/04/10 04:07:43;;;;;;;;;19.00;17.00;;;;;8.34;52.41;101277.66;5075296;27;45359;-66
2022/04/10 04:10:09;;;;;;;;;21.50;19.50;;;;;8.32;51.86;101274.19;5075403;27;45366;-63
2022/04/10 04:12:35;;;;;;;;;23.50;22.00;;;;;8.31;52.08;101269.88;5074023;28;45420;-62
2022/04/10 04:15:01;;;;;;;;;21.25;18.00;;;;;8.32;52.56;101271.59;5091039;27;45447;-63
2022/04/10 04:17:27;;;;;;;;;19.50;19.50;;;;;8.25;52.00;101256.81;5075021;27;46389;-62
2022/04/10 04:19:53;;;;;;;;;22.25;19.75;;;;;8.24;52.08;101258.59;5074979;27;45504;-65
2022/04/10 04:22:19;;;;;;;;;18.75;18.75;;;;;8.18;52.79;101258.69;5075204;27;45540;-63
2022/04/10 04:24:44;;;;;;;;;17.75;17.75;;;;;8.26;52.49;101274.31;5075048;27;45362;-63
2022/04/10 04:27:10;;;;;;;;;22.00;21.50;;;;;8.26;52.26;101279.53;5074948;27;45465;-69
2022/04/10 04:29:35;;;;;;;;;21.00;19.25;;;;;8.17;51.95;101270.06;5074768;27;45510;-66
2022/04/10 04:32:02;;;;;;;;;20.25;18.00;;;;;8.25;52.04;101283.03;5075331;27;45438;-65
2022/04/10 04:34:27;;;;;;;;;22.75;20.00;;;;;8.24;51.44;101284.78;5075162;27;45419;-66
2022/04/10 04:36:53;;;;;;;;;18.25;18.25;;;;;8.24;51.61;101289.19;5074804;27;46718;-63
2022/04/10 04:39:19;;;;;;;;;18.00;18.00;;;;;8.24;51.83;101282.19;5074819;27;46839;-66
2022/04/10 04:41:44;;;;;;;;;20.00;18.50;;;;;8.25;51.96;101290.91;5075768;27;45498;-64
2022/04/10 04:44:10;;;;;;;;;21.25;20.00;;;;;8.24;51.66;101294.41;5078544;27;45546;-65
2022/04/10 04:46:35;;;;;;;;;22.00;17.50;;;;;8.18;51.98;101298.00;5078429;27;45453;-66
2022/04/10 04:49:01;;;;;;;;;18.00;18.00;;;;;8.16;52.27;101305.84;5078395;27;45417;-66
2022/04/10 04:51:26;;;;;;;;;19.75;17.75;;;;;8.14;52.63;101302.41;5078553;27;45551;-60
2022/04/10 04:53:52;;;;;;;;;15.50;15.50;;;;;8.10;52.08;101305.09;5078342;27;45462;-61
2022/04/10 04:56:17;;;;;;;;;19.25;18.00;;;;;8.12;52.02;101316.44;5078134;27;45765;-63
2022/04/10 04:58:43;;;;;;;;;19.75;19.75;;;;;8.10;52.28;101310.34;5077905;27;45535;-62
2022/04/10 05:01:08;;;;;;;;;19.00;19.00;;;;;7.97;52.66;101299.16;5078245;27;45467;-71
2022/04/10 05:03:34;;;;;;;;;23.00;18.25;;;;;8.10;53.00;101323.44;5076992;28;45398;-64
2022/04/10 05:06:00;;;;;;;;;20.25;20.25;;;;;8.04;52.80;101321.75;5077982;27;46211;-63
2022/04/10 05:08:25;;;;;;;;;19.50;19.50;;;;;8.06;52.19;101324.34;5078280;27;45369;-65
2022/04/10 05:10:53;;;;;;;;;21.75;19.00;;;;;8.03;52.22;101316.53;5077998;27;45412;-64
2022/04/10 05:13:18;;;;;;;;;22.50;21.00;;;;;8.05;52.12;101318.25;5078414;27;45551;-64
2022/04/10 05:15:44;;;;;;;;;20.25;20.25;;;;;8.01;52.91;101321.81;5077735;27;45782;-64
2022/04/10 05:18:09;;;;;;;;;23.75;22.00;;;;;7.88;53.11;101309.75;5077754;27;45381;-65
2022/04/10 05:20:34;;;;;;;;;16.75;16.75;;;;;7.92;52.88;101314.91;5078062;27;45756;-63
2022/04/10 05:23:00;;;;;;;;;24.25;18.00;;;;;7.93;52.45;101306.19;5078083;27;45460;-63
2022/04/10 05:25:25;;;;;;;;;23.25;23.25;;;;;8.02;52.95;101325.28;5077547;27;45830;-62
2022/04/10 05:27:50;;;;;;;;;25.00;19.75;;;;;7.98;52.59;101319.25;5077762;27;45507;-64
2022/04/10 05:30:16;;;;;;;;;22.25;21.00;;;;;8.01;52.89;101320.94;5077756;27;45438;-62
2022/04/10 05:32:44;;;;;;;;;21.00;19.25;;;;;8.02;53.44;101318.28;5078174;27;45568;-63
2022/04/10 05:35:10;;;;;;;;;24.50;23.00;;;;;8.02;53.21;101326.16;5078178;27;45529;-61
2022/04/10 05:37:35;;;;;;;;;20.00;19.25;;;;;8.03;53.45;101337.50;5077653;27;45355;-66
2022/04/10 05:40:02;;;;;;;;;22.25;22.25;;;;;8.01;53.55;101329.66;5077602;28;45303;-65
2022/04/10 05:42:28;;;;;;;;;23.00;21.50;;;;;8.00;53.45;101343.63;5077558;27;45422;-62
2022/04/10 05:45:01;;;;;;;;;22.75;20.75;;;;;8.01;53.13;101350.63;5077390;27;46166;-63
2022/04/10 05:47:26;;;;;;;;;21.00;21.00;;;;;8.01;53.60;101348.00;5076022;28;45342;-64
2022/04/10 05:49:52;;;;;;;;;21.50;20.25;;;;;7.97;53.25;101347.16;5077726;27;46029;-63
2022/04/10 05:52:17;;;;;;;;;17.00;16.75;;;;;8.04;53.78;101357.59;5077073;27;45575;-64
2022/04/10 05:54:42;;;;;;;;;19.25;19.25;;;;;8.04;53.14;101355.81;5077047;27;49467;-62
2022/04/10 05:57:08;;;;;;;;;21.25;19.25;;;;;8.04;53.13;101353.19;5077451;27;45420;-65
2022/04/10 05:59:33;;;;;;;;;18.00;18.00;;;;;8.06;53.79;101348.81;5076818;27;45523;-65
2022/04/10 06:01:58;;;;;;;;;26.00;24.00;;;;;8.07;54.31;101354.91;5077455;27;45642;-63
2022/04/10 06:04:24;;;;;;;;;23.50;20.00;;;;;8.09;53.66;101354.00;5077088;27;46415;-65
2022/04/10 06:06:49;;;;;;;;;24.50;22.75;;;;;8.07;53.97;101354.91;5077243;27;45373;-65
2022/04/10 06:09:14;;;;;;;;;23.50;21.25;;;;;8.09;53.74;101356.63;5075989;28;45530;-68
2022/04/10 06:11:40;;;;;;;;;27.25;27.25;;;;;8.13;53.89;101358.31;5076994;27;49484;-63
2022/04/10 06:14:05;;;;;;;;;26.50;26.50;;;;;8.14;53.69;101353.94;5077057;27;45486;-65
2022/04/10 06:16:31;;;;;;;;;22.75;22.75;;;;;8.18;53.88;101366.13;5076905;27;45497;-62
2022/04/10 06:18:56;;;;;;;;;23.75;22.00;;;;;8.22;53.19;101369.56;5076928;27;45370;-65
2022/04/10 06:21:22;;;;;;;;;27.25;24.00;;;;;8.17;53.55;101349.53;5076966;27;45754;-64
2022/04/10 06:23:47;;;;;;;;;26.75;24.50;;;;;8.24;54.02;101367.78;5076614;27;45445;-63
2022/04/10 06:26:13;;;;;;;;;32.75;32.00;;;;;8.24;53.56;101371.28;5076765;27;45517;-64
2022/04/10 06:28:38;;;;;;;;;29.50;28.00;;;;;8.28;53.67;101375.59;5076934;27;45450;-64
2022/04/10 06:31:04;;;;;;;;;31.75;29.00;;;;;8.31;53.44;101367.69;5076775;27;45509;-65
2022/04/10 06:33:29;;;;;;;;;31.75;30.00;;;;;8.36;53.65;101365.00;5076576;27;45489;-62
2022/04/10 06:35:54;;;;;;;;;33.25;29.75;;;;;8.37;53.35;101359.72;5076511;27;45800;-63
2022/04/10 06:38:20;;;;;;;;;34.00;29.50;;;;;8.38;53.36;101369.34;5076741;27;45420;-63
2022/04/10 06:40:47;;;;;;;;;42.50;35.25;;;;;8.39;52.93;101370.25;5076530;27;45434;-64
2022/04/10 06:43:12;;;;;;;;;36.50;35.00;;;;;8.43;53.18;101374.53;5076549;27;47211;-65
2022/04/10 06:45:38;;;;;;;;;32.50;31.75;;;;;8.41;52.82;101368.47;5076308;27;45503;-63
2022/04/10 06:48:03;;;;;;;;;41.00;36.50;;;;;8.48;52.88;101370.09;5076658;27;45342;-63
2022/04/10 06:50:29;;;;;;;;;36.50;34.75;;;;;8.49;53.03;101369.22;5076527;27;45533;-63
2022/04/10 06:52:54;;;;;;;;;31.25;31.00;;;;;8.52;53.46;101368.31;5076164;27;46116;-63
2022/04/10 06:55:22;;;;;;;;;32.50;31.25;;;;;8.53;53.41;101363.03;5076409;27;45422;-63
2022/04/10 06:57:47;;;;;;;;;33.50;31.25;;;;;8.47;52.90;101343.94;5076526;27;45473;-66
2022/04/10 07:00:13;;;;;;;;;36.50;36.00;;;;;8.60;53.28;101369.06;5075906;27;45611;-65
2022/04/10 07:02:39;;;;;;;;;40.75;33.75;;;;;8.63;52.72;101372.50;5076151;28;45703;-64
2022/04/10 07:05:05;;;;;;;;;38.50;36.25;;;;;8.65;52.91;101358.50;5075375;27;45561;-65
2022/04/10 07:07:31;;;;;;;;;31.25;27.50;;;;;8.67;52.93;101367.22;5076433;27;45343;-64
2022/04/10 07:09:58;;;;;;;;;28.50;24.50;;;;;8.67;51.95;101365.44;5074797;28;45691;-65
2022/04/10 07:12:23;;;;;;;;;31.00;27.50;;;;;8.69;52.20;101368.91;5075950;27;46031;-65
2022/04/10 07:14:49;;;;;;;;;26.50;24.75;;;;;8.69;51.69;101355.81;5075806;27;45382;-62
2022/04/10 07:17:14;;;;;;;;;24.75;22.00;;;;;8.67;52.15;101357.59;5074914;28;45343;-64
2022/04/10 07:19:40;;;;;;;;;29.25;28.00;;;;;8.58;52.02;101334.13;5075582;27;45572;-65
2022/04/10 07:24:49;;;;;;;;;31.50;28.00;;;;;8.80;51.92;101364.38;5075773;28;45458;-64
2022/04/10 07:27:15;;;;;;;;;29.25;27.50;;;;;8.83;51.43;101364.31;5075624;28;52274;-64
2022/04/10 07:29:40;;;;;;;;;28.75;27.25;;;;;8.86;51.48;101363.41;5075776;27;45443;-61
2022/04/10 07:32:06;;;;;;;;;26.50;21.50;;;;;8.85;50.95;101353.81;5075921;27;45441;-63
2022/04/10 07:34:31;;;;;;;;;20.50;19.75;;;;;8.90;50.84;101359.00;5075749;27;45498;-65
2022/04/10 07:36:56;;;;;;;;;14.25;14.00;;;;;8.92;50.18;101367.69;5075930;27;45495;-63
2022/04/10 07:39:22;;;;;;;;;28.50;22.25;;;;;8.98;50.42;101365.00;5076042;27;45385;-66
2022/04/10 07:41:47;;;;;;;;;17.50;16.50;;;;;9.03;50.47;101373.66;5074300;28;47777;-62
2022/04/10 07:44:12;;;;;;;;;16.50;16.50;;;;;9.03;49.86;101373.66;5075529;27;45444;-64
2022/04/10 07:49:21;;;;;;;;;18.25;17.00;;;;;9.05;49.12;101377.09;5075661;28;45353;-63
2022/04/10 07:51:47;;;;;;;;;18.75;16.50;;;;;9.05;48.87;101375.34;5075332;27;46148;-64
2022/04/10 07:54:12;;;;;;;;;12.25;12.25;;;;;9.04;48.90;101368.34;5075708;27;45424;-64
2022/04/10 07:56:37;;;;;;;;;16.75;15.75;;;;;9.09;49.16;101365.66;5075643;27;45447;-64
2022/04/10 07:59:03;;;;;;;;;15.00;14.25;;;;;9.10;48.90;101369.16;5075306;27;45596;-63
2022/04/10 08:01:28;;;;;;;;;13.50;12.00;;;;;9.13;48.32;101374.34;5073855;28;46268;-66
2022/04/10 08:03:53;;;;;;;;;8.50;7.50;;;;;9.15;47.61;101377.81;5075408;27;45397;-61
2022/04/10 08:06:19;;;;;;;;;8.75;8.00;;;;;9.14;47.56;101373.47;5075502;27;45454;-62
2022/04/10 08:08:45;;;;;;;;;7.25;7.25;;;;;9.14;47.29;101379.59;5075501;28;45459;-61
2022/04/10 08:11:11;;;;;;;;;7.00;7.00;;;;;9.16;47.07;101372.56;5074949;28;46168;-62
2022/04/10 08:13:37;;;;;;;;;11.00;11.00;;;;;9.13;47.40;101356.84;5075372;27;45407;-65
2022/04/10 08:16:02;;;;;;;;;10.00;10.00;;;;;9.24;47.02;101378.53;5076623;27;45362;-64
2022/04/10 08:18:28;;;;;;;;;10.25;10.25;;;;;9.27;47.16;101380.25;5078977;27;45504;-62
2022/04/10 08:20:53;;;;;;;;;8.50;7.50;;;;;9.27;46.63;101364.50;5078646;27;45421;-65
2022/04/10 08:23:18;;;;;;;;;8.00;8.00;;;;;9.31;46.27;101371.41;5078978;27;45402;-64
2022/04/10 08:25:44;;;;;;;;;12.00;12.00;;;;;9.31;46.13;101370.53;5078968;27;45552;-63
2022/04/10 08:28:09;;;;;;;;;8.25;8.25;;;;;9.35;46.67;101372.22;5078528;27;51187;-64
2022/04/10 08:30:34;;;;;;;;;4.50;4.50;;;;;9.38;45.74;101372.19;5078687;27;46182;-64
2022/04/10 08:33:00;;;;;;;;;8.75;8.00;;;;;9.39;45.69;101369.50;5078564;27;45817;-63
2022/04/10 08:35:25;;;;;;;;;15.25;14.00;;;;;9.41;45.96;101370.34;5078737;28;45379;-64
2022/04/10 08:37:51;;;;;;;;;10.25;9.00;;;;;9.42;45.97;101372.06;5078698;27;45501;-65
2022/04/10 08:40:17;;;;;;;;;11.75;8.25;;;;;9.41;45.50;101366.88;5078322;27;45880;-64
2022/04/10 08:42:43;;;;;;;;;8.50;8.50;;;;;9.47;45.44;101372.00;5078735;27;45412;-62
2022/04/10 08:45:09;;;;;;;;;9.25;8.25;;;;;9.48;45.60;101384.22;5078672;27;45458;-63
2022/04/10 08:47:38;;;;;;;;;12.00;11.50;;;;;9.48;45.75;101371.97;5078569;28;45534;-62
2022/04/10 08:50:05;;;;;;;;;15.00;14.00;;;;;9.51;46.40;101378.94;5078460;27;45593;-64
2022/04/10 08:52:31;;;;;;;;;16.75;13.00;;;;;9.55;46.22;101379.75;5076884;28;45939;-64
2022/04/10 08:54:56;;;;;;;;;20.00;15.00;;;;;9.57;46.86;101383.22;5078398;27;45404;-65
2022/04/10 08:57:22;;;;;;;;;15.25;13.75;;;;;9.61;46.97;101382.25;5078313;27;45468;-64
2022/04/10 08:59:47;;;;;;;;;13.50;13.50;;;;;9.65;46.59;101376.91;5077808;27;45493;-65
2022/04/10 09:02:13;;;;;;;;;14.75;14.00;;;;;9.72;47.00;101377.66;5078199;27;45421;-66
2022/04/10 09:04:40;;;;;;;;;13.50;13.00;;;;;9.77;47.01;101372.31;5077059;27;45485;-63
2022/04/10 09:07:08;;;;;;;;;14.25;14.25;;;;;9.81;46.98;101369.59;5078262;27;45548;-65
2022/04/10 09:09:35;;;;;;;;;9.00;9.00;;;;;9.84;46.75;101374.78;5077958;27;46156;-62
2022/04/10 09:12:01;;;;;;;;;7.00;7.00;;;;;9.87;46.35;101379.13;5076589;28;45488;-62
2022/04/10 09:14:29;;;;;;;;;8.00;8.00;;;;;9.87;46.14;101361.59;5078034;27;45475;-65
2022/04/10 09:17:10;;;;;;;;;8.00;7.00;;;;;9.93;45.70;101373.72;5077987;28;45542;-63
2022/04/10 09:19:38;;;;;;;;;9.00;8.25;;;;;9.96;46.01;101374.53;5077681;27;46012;-63
2022/04/10 09:22:20;;;;;;;;;8.75;8.00;;;;;9.95;46.17;101367.56;5077621;27;45548;-63
2022/04/10 09:25:08;;;;;;;;;8.25;7.00;;;;;9.95;45.81;101362.28;5077926;27;45526;-64
2022/04/10 09:27:35;;;;;;;;;10.75;8.25;;;;;10.02;46.44;101362.16;5077032;27;45474;-64
2022/04/10 09:30:03;;;;;;;;;6.00;6.00;;;;;10.08;45.82;101369.94;5077568;27;45392;-64
2022/04/10 09:32:43;;;;;;;;;6.25;6.25;;;;;10.11;45.40;101367.25;5077735;27;45455;-63
2022/04/10 09:35:11;;;;;;;;;8.00;8.00;;;;;10.14;45.66;101372.44;5077907;27;45563;-64
2022/04/10 09:37:51;;;;;;;;;6.75;6.50;;;;;10.20;45.45;101371.44;5077507;27;45605;-65
2022/04/10 09:40:23;;;;;;;;;7.00;7.00;;;;;10.21;45.01;101368.78;5077531;27;45537;-63
2022/04/10 09:42:49;;;;;;;;;8.25;6.75;;;;;10.20;44.82;101366.19;5077380;27;45388;-66
2022/04/10 09:45:40;;;;;;;;;7.75;7.25;;;;;10.24;44.61;101366.09;5076401;28;45437;-62
2022/04/10 09:48:23;;;;;;;;;7.75;6.25;;;;;10.29;44.30;101372.16;5077667;27;45416;-64
2022/04/10 09:50:54;;;;;;;;;7.25;6.00;;;;;10.34;44.56;101375.53;5077335;27;45441;-65
2022/04/10 09:53:21;;;;;;;;;9.25;8.75;;;;;10.38;44.60;101376.34;5077416;27;45452;-64
2022/04/10 09:55:56;;;;;;;;;8.25;8.25;;;;;10.39;44.34;101373.66;5077443;28;45492;-64
2022/04/10 09:58:21;;;;;;;;;9.25;9.25;;;;;10.41;44.12;101370.13;5077458;27;45568;-62
2022/04/10 10:00:49;;;;;;;;;8.00;7.00;;;;;10.45;43.95;101366.53;5077029;27;45475;-63
2022/04/10 10:03:15;;;;;;;;;8.67;8.67;;;;;10.48;44.49;101361.22;5077279;27;45443;-65
2022/04/10 10:05:40;;;;;;;;;5.50;5.50;;;;;10.56;44.56;101361.91;5077261;27;45472;-66
2022/04/10 10:08:07;;;;;;;;;10.50;10.50;;;;;10.59;43.95;101365.31;5077495;28;45591;-64
2022/04/10 10:10:35;;;;;;;;;10.00;8.75;;;;;10.60;43.90;101364.41;5077120;27;46501;-63
2022/04/10 10:13:07;;;;;;;;;10.00;9.75;;;;;10.61;43.32;101360.91;5092940;27;45729;-65
2022/04/10 10:15:36;;;;;;;;;12.25;9.25;;;;;10.62;43.46;101351.25;5077186;27;45445;-64
2022/04/10 10:18:04;;;;;;;;;11.50;10.00;;;;;10.61;43.71;101358.28;5077214;28;45552;-65
2022/04/10 10:20:30;;;;;;;;;15.00;13.50;;;;;10.66;44.31;101358.13;5076869;27;46543;-66
2022/04/10 10:22:57;;;;;;;;;8.75;8.75;;;;;10.68;43.73;101350.22;5076887;27;45485;-65
2022/04/10 10:26:00;;;;;;;;;9.50;9.50;;;;;10.69;43.22;101352.81;5077155;27;45457;-63
2022/04/10 10:28:25;;;;;;;;;6.00;6.00;;;;;10.71;43.55;101351.00;5076929;27;45674;-65
2022/04/10 10:31:22;;;;;;;;;7.00;7.00;;;;;10.65;42.91;101327.50;5076681;27;45525;-62
2022/04/10 10:33:51;;;;;;;;;8.75;8.25;;;;;10.73;42.68;101333.44;5076893;27;45378;-63
2022/04/10 10:36:27;;;;;;;;;8.75;7.00;;;;;10.73;42.78;101332.56;5076761;27;45474;-63
2022/04/10 10:38:57;;;;;;;;;7.50;5.50;;;;;10.78;42.24;101343.84;5076001;27;45532;-65
2022/04/10 10:41:22;;;;;;;;;7.00;7.00;;;;;10.81;42.12;101338.50;5075967;27;46514;-64
2022/04/10 10:43:48;;;;;;;;;7.25;7.25;;;;;10.83;41.92;101334.09;5076369;28;45374;-61
2022/04/10 10:46:20;;;;;;;;;9.75;8.50;;;;;10.87;42.04;101337.50;5075304;28;45394;-63
2022/04/10 10:48:46;;;;;;;;;7.67;7.33;;;;;10.87;41.54;101326.97;5076619;27;45448;-64
2022/04/10 10:51:11;;;;;;;;;5.00;5.00;;;;;10.94;41.70;101331.19;5076322;27;45390;-65
2022/04/10 10:53:53;;;;;;;;;7.25;7.25;;;;;10.95;42.28;101328.50;5076528;27;45515;-66
2022/04/10 10:56:20;;;;;;;;;5.00;5.00;;;;;10.98;42.11;101314.41;5076656;27;45370;-65
2022/04/10 10:58:49;;;;;;;;;9.50;9.25;;;;;11.04;41.35;101323.00;5076405;27;45409;-62
2022/04/10 11:01:17;;;;;;;;;4.50;4.50;;;;;11.07;42.30;101316.81;5076252;28;45481;-62
2022/04/10 11:04:06;;;;;;;;;5.00;5.00;;;;;11.15;42.06;101320.09;5076227;27;45480;-63
2022/04/10 11:06:42;;;;;;;;;9.00;7.33;;;;;11.20;41.49;101319.97;5076367;27;45422;-62
2022/04/10 11:09:28;;;;;;;;;7.67;7.67;;;;;11.23;40.58;101304.97;5076255;27;45446;-62
2022/04/10 11:11:57;;;;;;;;;9.33;5.33;;;;;11.26;39.24;101304.03;5076204;28;45421;-63
2022/04/10 11:14:39;;;;;;;;;8.33;8.33;;;;;11.28;41.01;101303.06;5076090;27;45492;-62
2022/04/10 11:17:08;;;;;;;;;6.33;6.33;;;;;11.32;40.40;101295.94;5075980;27;45542;-63
2022/04/10 11:19:36;;;;;;;;;9.00;9.00;;;;;11.34;40.53;101303.78;5076026;27;45509;-65
2022/04/10 11:22:02;;;;;;;;;6.00;6.00;;;;;11.37;40.34;101296.69;5091660;27;46682;-65
2022/04/10 11:24:27;;;;;;;;;7.00;7.00;;;;;11.38;39.60;101292.28;5075867;27;45443;-64